sensor_id;sensor_type;location;lat;lon;timestamp;temperature;humidity
25250;DHT22;13201;51.148;13.738;2024-02-26T00:01:31;4.10;99.90
25250;DHT22;13201;51.148;13.738;2024-02-26T00:03:58;4.00;99.90
25250;DHT22;13201;51.148;13.738;2024-02-26T00:06:25;4.10;99.90
25250;DHT22;13201;51.148;13.738;2024-02-26T00:08:50;4.00;99.90
25250;DHT22;13201;51.148;13.738;2024-02-26T00:11:16;4.00;99.90
25250;DHT22;13201;51.148;13.738;2024-02-26T00:13:42;3.90;99.90
25250;DHT22;13201;51.148;13.738;2024-02-26T00:16:07;3.90;99.90
25250;DHT22;13201;51.148;13.738;2024-02-26T00:18:33;3.90;99.90
25250;DHT22;13201;51.148;13.738;2024-02-26T00:20:59;4.00;99.90
25250;DHT22;13201;51.148;13.738;2024-02-26T00:23:26;4.10;99.90
25250;DHT22;13201;51.148;13.738;2024-02-26T00:25:52;4.00;99.90
25250;DHT22;13201;51.148;13.738;2024-02-26T00:28:18;4.00;99.90
25250;DHT22;13201;51.148;13.738;2024-02-26T00:30:45;3.80;99.90
25250;DHT22;13201;51.148;13.738;2024-02-26T00:33:11;3.90;99.90
25250;DHT22;13201;51.148;13.738;2024-02-26T00:35:37;3.90;99.90
25250;DHT22;13201;51.148;13.738;2024-02-26T00:38:02;3.90;99.90
25250;DHT22;13201;51.148;13.738;2024-02-26T00:40:29;4.00;99.90
25250;DHT22;13201;51.148;13.738;2024-02-26T00:42:54;3.90;99.90
25250;DHT22;13201;51.148;13.738;2024-02-26T00:45:20;3.90;99.90
25250;DHT22;13201;51.148;13.738;2024-02-26T00:47:46;3.90;99.90
25250;DHT22;13201;51.148;13.738;2024-02-26T00:50:13;3.80;99.90
25250;DHT22;13201;51.148;13.738;2024-02-26T00:52:38;3.80;99.90
25250;DHT22;13201;51.148;13.738;2024-02-26T00:55:05;3.80;99.90
25250;DHT22;13201;51.148;13.738;2024-02-26T00:57:31;3.70;99.90
25250;DHT22;13201;51.148;13.738;2024-02-26T00:59:57;3.70;99.90
25250;DHT22;13201;51.148;13.738;2024-02-26T01:27:55;2.40;99.90
25250;DHT22;13201;51.148;13.738;2024-02-26T01:30:21;2.30;99.90
25250;DHT22;13201;51.148;13.738;2024-02-26T01:32:47;2.40;99.90
25250;DHT22;13201;51.148;13.738;2024-02-26T01:35:12;2.50;99.90
25250;DHT22;13201;51.148;13.738;2024-02-26T01:37:38;2.70;99.90
25250;DHT22;13201;51.148;13.738;2024-02-26T01:40:05;2.80;99.90
25250;DHT22;13201;51.148;13.738;2024-02-26T01:42:32;2.80;99.90
25250;DHT22;13201;51.148;13.738;2024-02-26T01:44:58;2.80;99.90
25250;DHT22;13201;51.148;13.738;2024-02-26T01:47:25;2.90;99.90
25250;DHT22;13201;51.148;13.738;2024-02-26T01:49:52;2.90;99.90
25250;DHT22;13201;51.148;13.738;2024-02-26T01:52:19;2.90;99.90
25250;DHT22;13201;51.148;13.738;2024-02-26T01:54:45;2.90;99.90
25250;DHT22;13201;51.148;13.738;2024-02-26T01:57:12;2.90;99.90
25250;DHT22;13201;51.148;13.738;2024-02-26T01:59:39;3.00;99.90
25250;DHT22;13201;51.148;13.738;2024-02-26T02:02:07;3.10;99.90
25250;DHT22;13201;51.148;13.738;2024-02-26T02:04:35;3.10;99.90
25250;DHT22;13201;51.148;13.738;2024-02-26T02:07:01;3.20;99.90
25250;DHT22;13201;51.148;13.738;2024-02-26T02:09:28;3.20;99.90
25250;DHT22;13201;51.148;13.738;2024-02-26T02:11:54;3.00;99.90
25250;DHT22;13201;51.148;13.738;2024-02-26T02:14:20;3.00;99.90
25250;DHT22;13201;51.148;13.738;2024-02-26T02:16:47;3.00;99.90
25250;DHT22;13201;51.148;13.738;2024-02-26T02:19:13;3.00;99.90
25250;DHT22;13201;51.148;13.738;2024-02-26T02:21:39;3.00;99.90
25250;DHT22;13201;51.148;13.738;2024-02-26T02:24:05;2.90;99.90
25250;DHT22;13201;51.148;13.738;2024-02-26T02:26:30;2.90;99.90
25250;DHT22;13201;51.148;13.738;2024-02-26T02:28:57;3.00;99.90
25250;DHT22;13201;51.148;13.738;2024-02-26T02:31:23;3.00;99.90
25250;DHT22;13201;51.148;13.738;2024-02-26T02:33:49;3.00;99.90
25250;DHT22;13201;51.148;13.738;2024-02-26T02:36:15;2.90;99.90
25250;DHT22;13201;51.148;13.738;2024-02-26T02:38:51;2.80;99.90
25250;DHT22;13201;51.148;13.738;2024-02-26T02:41:17;2.80;99.90
25250;DHT22;13201;51.148;13.738;2024-02-26T02:43:42;2.90;99.90
25250;DHT22;13201;51.148;13.738;2024-02-26T02:46:08;2.80;99.90
25250;DHT22;13201;51.148;13.738;2024-02-26T02:48:34;2.80;99.90
25250;DHT22;13201;51.148;13.738;2024-02-26T02:50:59;2.60;99.90
25250;DHT22;13201;51.148;13.738;2024-02-26T02:53:25;2.70;99.90
25250;DHT22;13201;51.148;13.738;2024-02-26T02:55:51;2.80;99.90
25250;DHT22;13201;51.148;13.738;2024-02-26T02:58:16;2.70;99.90
25250;DHT22;13201;51.148;13.738;2024-02-26T03:00:42;2.80;99.90
25250;DHT22;13201;51.148;13.738;2024-02-26T03:03:08;2.70;99.90
25250;DHT22;13201;51.148;13.738;2024-02-26T03:05:33;2.40;99.90
25250;DHT22;13201;51.148;13.738;2024-02-26T03:07:59;2.50;99.90
25250;DHT22;13201;51.148;13.738;2024-02-26T03:10:25;2.70;99.90
25250;DHT22;13201;51.148;13.738;2024-02-26T03:12:50;2.70;99.90
25250;DHT22;13201;51.148;13.738;2024-02-26T03:15:16;2.80;99.90
25250;DHT22;13201;51.148;13.738;2024-02-26T03:17:42;2.80;99.90
25250;DHT22;13201;51.148;13.738;2024-02-26T03:20:08;2.80;99.90
25250;DHT22;13201;51.148;13.738;2024-02-26T03:22:35;2.80;99.90
25250;DHT22;13201;51.148;13.738;2024-02-26T03:25:01;2.80;99.90
25250;DHT22;13201;51.148;13.738;2024-02-26T03:27:27;2.80;99.90
25250;DHT22;13201;51.148;13.738;2024-02-26T03:29:52;2.80;99.90
25250;DHT22;13201;51.148;13.738;2024-02-26T03:32:18;2.80;99.90
25250;DHT22;13201;51.148;13.738;2024-02-26T03:34:44;2.80;99.90
25250;DHT22;13201;51.148;13.738;2024-02-26T03:37:09;2.80;99.90
25250;DHT22;13201;51.148;13.738;2024-02-26T03:39:36;2.80;99.90
25250;DHT22;13201;51.148;13.738;2024-02-26T03:42:03;2.90;99.90
25250;DHT22;13201;51.148;13.738;2024-02-26T03:44:28;2.80;99.90
25250;DHT22;13201;51.148;13.738;2024-02-26T03:46:54;2.80;99.90
25250;DHT22;13201;51.148;13.738;2024-02-26T03:49:21;2.70;99.90
25250;DHT22;13201;51.148;13.738;2024-02-26T03:51:47;2.80;99.90
25250;DHT22;13201;51.148;13.738;2024-02-26T03:54:13;2.80;99.90
25250;DHT22;13201;51.148;13.738;2024-02-26T03:56:39;2.80;99.90
25250;DHT22;13201;51.148;13.738;2024-02-26T03:59:05;2.70;99.90
25250;DHT22;13201;51.148;13.738;2024-02-26T04:01:31;2.70;99.90
25250;DHT22;13201;51.148;13.738;2024-02-26T04:03:57;2.70;99.90
25250;DHT22;13201;51.148;13.738;2024-02-26T04:06:22;2.70;99.90
25250;DHT22;13201;51.148;13.738;2024-02-26T04:08:48;2.60;99.90
25250;DHT22;13201;51.148;13.738;2024-02-26T04:11:14;2.60;99.90
25250;DHT22;13201;51.148;13.738;2024-02-26T04:13:43;2.70;99.90
25250;DHT22;13201;51.148;13.738;2024-02-26T04:16:11;2.80;99.90
25250;DHT22;13201;51.148;13.738;2024-02-26T04:18:37;2.50;99.90
25250;DHT22;13201;51.148;13.738;2024-02-26T04:21:04;2.40;99.90
25250;DHT22;13201;51.148;13.738;2024-02-26T04:23:32;2.40;99.90
25250;DHT22;13201;51.148;13.738;2024-02-26T04:25:58;2.30;99.90
25250;DHT22;13201;51.148;13.738;2024-02-26T04:28:24;2.30;99.90
25250;DHT22;13201;51.148;13.738;2024-02-26T04:30:51;2.20;99.90
25250;DHT22;13201;51.148;13.738;2024-02-26T04:33:18;2.40;99.90
25250;DHT22;13201;51.148;13.738;2024-02-26T04:35:43;2.50;99.90
25250;DHT22;13201;51.148;13.738;2024-02-26T04:38:09;2.50;99.90
25250;DHT22;13201;51.148;13.738;2024-02-26T04:40:34;2.50;99.90
25250;DHT22;13201;51.148;13.738;2024-02-26T04:43:00;2.50;99.90
25250;DHT22;13201;51.148;13.738;2024-02-26T04:45:26;2.40;99.90
25250;DHT22;13201;51.148;13.738;2024-02-26T04:47:51;2.30;99.90
25250;DHT22;13201;51.148;13.738;2024-02-26T04:50:17;2.40;99.90
25250;DHT22;13201;51.148;13.738;2024-02-26T04:52:43;2.30;99.90
25250;DHT22;13201;51.148;13.738;2024-02-26T04:55:08;2.30;99.90
25250;DHT22;13201;51.148;13.738;2024-02-26T04:57:34;2.10;99.90
25250;DHT22;13201;51.148;13.738;2024-02-26T04:59:59;2.10;99.90
25250;DHT22;13201;51.148;13.738;2024-02-26T05:02:25;2.20;99.90
25250;DHT22;13201;51.148;13.738;2024-02-26T05:04:51;2.10;99.90
25250;DHT22;13201;51.148;13.738;2024-02-26T05:07:16;2.10;99.90
25250;DHT22;13201;51.148;13.738;2024-02-26T05:09:43;2.20;99.90
25250;DHT22;13201;51.148;13.738;2024-02-26T05:12:09;2.20;99.90
25250;DHT22;13201;51.148;13.738;2024-02-26T05:14:35;2.20;99.90
25250;DHT22;13201;51.148;13.738;2024-02-26T05:17:01;2.30;99.90
25250;DHT22;13201;51.148;13.738;2024-02-26T05:19:26;2.30;99.90
25250;DHT22;13201;51.148;13.738;2024-02-26T05:21:52;2.40;99.90
25250;DHT22;13201;51.148;13.738;2024-02-26T05:24:18;2.40;99.90
25250;DHT22;13201;51.148;13.738;2024-02-26T05:26:47;2.40;99.90
25250;DHT22;13201;51.148;13.738;2024-02-26T05:29:13;2.40;99.90
25250;DHT22;13201;51.148;13.738;2024-02-26T05:31:39;2.30;99.90
25250;DHT22;13201;51.148;13.738;2024-02-26T05:34:05;2.50;99.90
25250;DHT22;13201;51.148;13.738;2024-02-26T05:36:30;2.50;99.90
25250;DHT22;13201;51.148;13.738;2024-02-26T05:38:59;2.60;99.90
25250;DHT22;13201;51.148;13.738;2024-02-26T05:41:25;2.50;99.90
25250;DHT22;13201;51.148;13.738;2024-02-26T05:43:55;2.60;99.90
25250;DHT22;13201;51.148;13.738;2024-02-26T05:46:21;2.50;99.90
25250;DHT22;13201;51.148;13.738;2024-02-26T05:48:49;2.50;99.90
25250;DHT22;13201;51.148;13.738;2024-02-26T05:51:15;2.50;99.90
25250;DHT22;13201;51.148;13.738;2024-02-26T05:53:41;2.60;99.90
25250;DHT22;13201;51.148;13.738;2024-02-26T05:56:06;2.70;99.90
25250;DHT22;13201;51.148;13.738;2024-02-26T05:58:32;2.50;99.90
25250;DHT22;13201;51.148;13.738;2024-02-26T06:00:58;2.60;99.90
25250;DHT22;13201;51.148;13.738;2024-02-26T06:03:24;2.60;99.90
25250;DHT22;13201;51.148;13.738;2024-02-26T06:05:49;2.60;99.90
25250;DHT22;13201;51.148;13.738;2024-02-26T06:08:15;2.70;99.90
25250;DHT22;13201;51.148;13.738;2024-02-26T06:10:40;2.70;99.90
25250;DHT22;13201;51.148;13.738;2024-02-26T06:13:06;2.60;99.90
25250;DHT22;13201;51.148;13.738;2024-02-26T06:15:32;2.60;99.90
25250;DHT22;13201;51.148;13.738;2024-02-26T06:17:57;2.70;99.90
25250;DHT22;13201;51.148;13.738;2024-02-26T06:20:23;2.70;99.90
25250;DHT22;13201;51.148;13.738;2024-02-26T06:22:49;2.70;99.90
25250;DHT22;13201;51.148;13.738;2024-02-26T06:25:15;2.70;99.90
25250;DHT22;13201;51.148;13.738;2024-02-26T06:27:40;2.70;99.90
25250;DHT22;13201;51.148;13.738;2024-02-26T06:30:06;2.60;99.90
25250;DHT22;13201;51.148;13.738;2024-02-26T06:32:34;2.70;99.90
25250;DHT22;13201;51.148;13.738;2024-02-26T06:34:59;2.70;99.90
25250;DHT22;13201;51.148;13.738;2024-02-26T06:37:25;2.80;99.90
25250;DHT22;13201;51.148;13.738;2024-02-26T06:39:50;2.90;99.90
25250;DHT22;13201;51.148;13.738;2024-02-26T06:42:17;2.90;99.90
25250;DHT22;13201;51.148;13.738;2024-02-26T06:44:43;2.90;99.90
25250;DHT22;13201;51.148;13.738;2024-02-26T06:47:09;3.00;99.90
25250;DHT22;13201;51.148;13.738;2024-02-26T06:49:34;3.00;99.90
25250;DHT22;13201;51.148;13.738;2024-02-26T06:52:00;3.10;99.90
25250;DHT22;13201;51.148;13.738;2024-02-26T06:54:26;3.20;99.90
25250;DHT22;13201;51.148;13.738;2024-02-26T06:56:51;3.20;99.90
25250;DHT22;13201;51.148;13.738;2024-02-26T06:59:17;3.30;99.90
25250;DHT22;13201;51.148;13.738;2024-02-26T07:01:43;3.30;99.90
25250;DHT22;13201;51.148;13.738;2024-02-26T07:04:08;3.40;99.90
25250;DHT22;13201;51.148;13.738;2024-02-26T07:06:36;3.50;99.90
25250;DHT22;13201;51.148;13.738;2024-02-26T07:09:02;3.50;99.90
25250;DHT22;13201;51.148;13.738;2024-02-26T07:11:28;3.60;99.90
25250;DHT22;13201;51.148;13.738;2024-02-26T07:13:53;3.70;99.90
25250;DHT22;13201;51.148;13.738;2024-02-26T07:16:19;3.70;99.90
25250;DHT22;13201;51.148;13.738;2024-02-26T07:18:45;3.80;99.90
25250;DHT22;13201;51.148;13.738;2024-02-26T07:21:12;3.90;99.90
25250;DHT22;13201;51.148;13.738;2024-02-26T07:23:37;4.10;99.90
25250;DHT22;13201;51.148;13.738;2024-02-26T07:26:03;4.00;99.90
25250;DHT22;13201;51.148;13.738;2024-02-26T07:28:29;4.10;99.90
25250;DHT22;13201;51.148;13.738;2024-02-26T07:30:54;4.20;99.90
25250;DHT22;13201;51.148;13.738;2024-02-26T07:33:20;4.30;99.90
25250;DHT22;13201;51.148;13.738;2024-02-26T07:35:46;4.40;99.90
25250;DHT22;13201;51.148;13.738;2024-02-26T07:38:12;4.50;99.90
25250;DHT22;13201;51.148;13.738;2024-02-26T07:40:38;4.60;99.90
25250;DHT22;13201;51.148;13.738;2024-02-26T07:43:04;4.70;99.90
25250;DHT22;13201;51.148;13.738;2024-02-26T07:45:30;4.70;99.90
25250;DHT22;13201;51.148;13.738;2024-02-26T07:47:55;4.80;99.90
25250;DHT22;13201;51.148;13.738;2024-02-26T07:50:21;4.90;99.90
25250;DHT22;13201;51.148;13.738;2024-02-26T07:52:47;5.00;99.90
25250;DHT22;13201;51.148;13.738;2024-02-26T07:55:13;5.20;99.90
25250;DHT22;13201;51.148;13.738;2024-02-26T07:57:42;5.30;99.90
25250;DHT22;13201;51.148;13.738;2024-02-26T08:00:08;5.40;99.90
25250;DHT22;13201;51.148;13.738;2024-02-26T08:02:35;5.50;99.90
25250;DHT22;13201;51.148;13.738;2024-02-26T08:05:01;5.60;99.90
25250;DHT22;13201;51.148;13.738;2024-02-26T08:07:27;5.70;99.90
25250;DHT22;13201;51.148;13.738;2024-02-26T08:09:52;5.70;99.90
25250;DHT22;13201;51.148;13.738;2024-02-26T08:12:18;5.80;99.90
25250;DHT22;13201;51.148;13.738;2024-02-26T08:14:44;5.90;99.90
25250;DHT22;13201;51.148;13.738;2024-02-26T08:17:10;6.00;99.90
25250;DHT22;13201;51.148;13.738;2024-02-26T08:19:35;6.10;99.90
25250;DHT22;13201;51.148;13.738;2024-02-26T08:22:01;6.20;99.90
25250;DHT22;13201;51.148;13.738;2024-02-26T08:24:27;6.40;99.90
25250;DHT22;13201;51.148;13.738;2024-02-26T08:26:53;6.40;99.90
25250;DHT22;13201;51.148;13.738;2024-02-26T08:29:19;6.50;99.90
25250;DHT22;13201;51.148;13.738;2024-02-26T08:31:45;6.60;99.90
25250;DHT22;13201;51.148;13.738;2024-02-26T08:34:10;6.70;99.90
25250;DHT22;13201;51.148;13.738;2024-02-26T08:36:36;6.80;99.90
25250;DHT22;13201;51.148;13.738;2024-02-26T08:39:02;6.90;99.90
25250;DHT22;13201;51.148;13.738;2024-02-26T08:41:28;7.00;99.90
25250;DHT22;13201;51.148;13.738;2024-02-26T08:43:54;7.20;99.90
25250;DHT22;13201;51.148;13.738;2024-02-26T08:46:20;7.30;99.90
25250;DHT22;13201;51.148;13.738;2024-02-26T08:48:46;7.30;99.90
25250;DHT22;13201;51.148;13.738;2024-02-26T08:51:11;7.40;99.90
25250;DHT22;13201;51.148;13.738;2024-02-26T08:53:38;7.50;99.90
25250;DHT22;13201;51.148;13.738;2024-02-26T08:56:04;7.70;99.90
25250;DHT22;13201;51.148;13.738;2024-02-26T08:58:30;7.70;99.90
25250;DHT22;13201;51.148;13.738;2024-02-26T09:00:56;7.80;99.90
25250;DHT22;13201;51.148;13.738;2024-02-26T09:03:22;7.90;99.90
25250;DHT22;13201;51.148;13.738;2024-02-26T09:05:48;7.90;99.90
25250;DHT22;13201;51.148;13.738;2024-02-26T09:08:14;8.00;99.90
25250;DHT22;13201;51.148;13.738;2024-02-26T09:10:40;8.10;99.90
25250;DHT22;13201;51.148;13.738;2024-02-26T09:13:06;8.20;99.90
25250;DHT22;13201;51.148;13.738;2024-02-26T09:15:31;8.30;99.90
25250;DHT22;13201;51.148;13.738;2024-02-26T09:17:57;8.40;99.90
25250;DHT22;13201;51.148;13.738;2024-02-26T09:20:23;8.50;99.90
25250;DHT22;13201;51.148;13.738;2024-02-26T09:22:49;8.50;99.90
25250;DHT22;13201;51.148;13.738;2024-02-26T09:25:16;8.60;99.90
25250;DHT22;13201;51.148;13.738;2024-02-26T09:27:43;8.70;99.90
25250;DHT22;13201;51.148;13.738;2024-02-26T09:30:12;8.90;99.90
25250;DHT22;13201;51.148;13.738;2024-02-26T09:32:38;8.90;99.90
25250;DHT22;13201;51.148;13.738;2024-02-26T09:35:05;9.00;99.90
25250;DHT22;13201;51.148;13.738;2024-02-26T09:37:31;9.10;99.90
25250;DHT22;13201;51.148;13.738;2024-02-26T09:39:57;9.10;99.90
25250;DHT22;13201;51.148;13.738;2024-02-26T09:42:26;9.00;99.90
25250;DHT22;13201;51.148;13.738;2024-02-26T09:44:54;9.10;99.90
25250;DHT22;13201;51.148;13.738;2024-02-26T09:47:22;9.10;99.90
25250;DHT22;13201;51.148;13.738;2024-02-26T09:49:49;9.20;99.90
25250;DHT22;13201;51.148;13.738;2024-02-26T09:52:16;9.30;99.90
25250;DHT22;13201;51.148;13.738;2024-02-26T09:54:46;9.40;99.90
25250;DHT22;13201;51.148;13.738;2024-02-26T09:57:13;9.50;99.90
25250;DHT22;13201;51.148;13.738;2024-02-26T09:59:42;9.60;99.90
25250;DHT22;13201;51.148;13.738;2024-02-26T10:02:14;9.70;99.90
25250;DHT22;13201;51.148;13.738;2024-02-26T10:04:41;9.70;99.90
25250;DHT22;13201;51.148;13.738;2024-02-26T10:07:11;9.80;99.90
25250;DHT22;13201;51.148;13.738;2024-02-26T10:09:37;9.90;99.90
25250;DHT22;13201;51.148;13.738;2024-02-26T10:12:04;9.90;99.90
25250;DHT22;13201;51.148;13.738;2024-02-26T10:14:30;10.00;99.90
25250;DHT22;13201;51.148;13.738;2024-02-26T10:16:56;10.10;99.90
25250;DHT22;13201;51.148;13.738;2024-02-26T10:19:29;10.10;99.90
25250;DHT22;13201;51.148;13.738;2024-02-26T10:22:00;10.20;99.90
25250;DHT22;13201;51.148;13.738;2024-02-26T10:24:26;10.20;99.90
25250;DHT22;13201;51.148;13.738;2024-02-26T10:26:54;10.30;99.90
25250;DHT22;13201;51.148;13.738;2024-02-26T10:29:20;10.30;99.90
25250;DHT22;13201;51.148;13.738;2024-02-26T10:31:46;10.40;99.90
25250;DHT22;13201;51.148;13.738;2024-02-26T10:34:12;10.60;99.90
25250;DHT22;13201;51.148;13.738;2024-02-26T10:36:39;10.80;99.90
25250;DHT22;13201;51.148;13.738;2024-02-26T10:39:09;11.00;99.90
25250;DHT22;13201;51.148;13.738;2024-02-26T10:41:35;10.90;99.90
25250;DHT22;13201;51.148;13.738;2024-02-26T10:44:01;10.90;99.90
25250;DHT22;13201;51.148;13.738;2024-02-26T10:46:27;10.90;99.90
25250;DHT22;13201;51.148;13.738;2024-02-26T10:48:53;11.00;99.90
25250;DHT22;13201;51.148;13.738;2024-02-26T10:51:27;11.10;99.90
25250;DHT22;13201;51.148;13.738;2024-02-26T10:53:57;11.20;99.90
25250;DHT22;13201;51.148;13.738;2024-02-26T10:56:28;11.20;99.90
25250;DHT22;13201;51.148;13.738;2024-02-26T10:58:58;11.40;99.90
25250;DHT22;13201;51.148;13.738;2024-02-26T11:01:24;11.40;99.90
25250;DHT22;13201;51.148;13.738;2024-02-26T11:03:51;11.60;99.90
25250;DHT22;13201;51.148;13.738;2024-02-26T11:06:24;11.60;99.90
25250;DHT22;13201;51.148;13.738;2024-02-26T11:08:51;11.80;99.90
25250;DHT22;13201;51.148;13.738;2024-02-26T11:11:18;11.80;99.90
25250;DHT22;13201;51.148;13.738;2024-02-26T11:13:46;11.90;99.90
25250;DHT22;13201;51.148;13.738;2024-02-26T11:16:20;11.90;99.90
25250;DHT22;13201;51.148;13.738;2024-02-26T11:18:47;11.90;99.90
25250;DHT22;13201;51.148;13.738;2024-02-26T11:21:16;12.00;99.90
25250;DHT22;13201;51.148;13.738;2024-02-26T11:23:44;12.00;99.90
25250;DHT22;13201;51.148;13.738;2024-02-26T11:26:11;12.00;99.90
25250;DHT22;13201;51.148;13.738;2024-02-26T11:28:39;12.00;99.90
25250;DHT22;13201;51.148;13.738;2024-02-26T11:31:05;11.90;99.90
25250;DHT22;13201;51.148;13.738;2024-02-26T11:33:33;12.10;99.90
25250;DHT22;13201;51.148;13.738;2024-02-26T11:36:02;12.20;99.90
25250;DHT22;13201;51.148;13.738;2024-02-26T11:38:28;12.10;99.90
25250;DHT22;13201;51.148;13.738;2024-02-26T11:40:54;12.30;99.90
25250;DHT22;13201;51.148;13.738;2024-02-26T11:46:28;11.90;99.90
25250;DHT22;13201;51.148;13.738;2024-02-26T11:49:00;12.10;99.90
25250;DHT22;13201;51.148;13.738;2024-02-26T11:51:27;12.10;99.90
25250;DHT22;13201;51.148;13.738;2024-02-26T11:53:54;12.20;99.90
25250;DHT22;13201;51.148;13.738;2024-02-26T11:56:23;12.30;99.90
25250;DHT22;13201;51.148;13.738;2024-02-26T11:58:56;12.50;99.90
25250;DHT22;13201;51.148;13.738;2024-02-26T12:01:47;12.60;99.90
25250;DHT22;13201;51.148;13.738;2024-02-26T12:04:21;12.60;99.90
25250;DHT22;13201;51.148;13.738;2024-02-26T12:06:55;12.60;99.90
25250;DHT22;13201;51.148;13.738;2024-02-26T12:09:35;12.60;99.90
25250;DHT22;13201;51.148;13.738;2024-02-26T12:12:03;12.60;99.90
25250;DHT22;13201;51.148;13.738;2024-02-26T12:14:29;12.80;99.90
25250;DHT22;13201;51.148;13.738;2024-02-26T12:16:55;12.80;99.90
25250;DHT22;13201;51.148;13.738;2024-02-26T12:19:22;12.60;99.90
25250;DHT22;13201;51.148;13.738;2024-02-26T12:21:51;12.60;99.90
25250;DHT22;13201;51.148;13.738;2024-02-26T12:24:19;12.80;99.90
25250;DHT22;13201;51.148;13.738;2024-02-26T12:26:45;13.00;99.90
25250;DHT22;13201;51.148;13.738;2024-02-26T12:29:12;13.00;99.90
25250;DHT22;13201;51.148;13.738;2024-02-26T12:31:39;12.90;99.90
25250;DHT22;13201;51.148;13.738;2024-02-26T12:34:06;12.70;99.90
25250;DHT22;13201;51.148;13.738;2024-02-26T12:36:34;12.70;99.90
25250;DHT22;13201;51.148;13.738;2024-02-26T12:39:01;12.60;99.90
25250;DHT22;13201;51.148;13.738;2024-02-26T12:41:27;12.50;99.90
25250;DHT22;13201;51.148;13.738;2024-02-26T12:43:55;12.40;99.90
25250;DHT22;13201;51.148;13.738;2024-02-26T12:46:22;12.60;99.90
25250;DHT22;13201;51.148;13.738;2024-02-26T12:48:47;12.60;99.90
25250;DHT22;13201;51.148;13.738;2024-02-26T12:51:14;12.50;99.90
25250;DHT22;13201;51.148;13.738;2024-02-26T12:53:41;12.40;99.90
25250;DHT22;13201;51.148;13.738;2024-02-26T12:56:10;12.60;99.90
25250;DHT22;13201;51.148;13.738;2024-02-26T12:58:38;12.70;99.90
25250;DHT22;13201;51.148;13.738;2024-02-26T13:01:05;12.60;99.90
25250;DHT22;13201;51.148;13.738;2024-02-26T13:03:32;12.70;99.90
25250;DHT22;13201;51.148;13.738;2024-02-26T13:06:00;12.70;99.90
25250;DHT22;13201;51.148;13.738;2024-02-26T13:08:26;12.50;99.90
25250;DHT22;13201;51.148;13.738;2024-02-26T13:10:52;12.60;99.90
25250;DHT22;13201;51.148;13.738;2024-02-26T13:13:18;12.60;99.90
25250;DHT22;13201;51.148;13.738;2024-02-26T13:15:45;12.80;99.90
25250;DHT22;13201;51.148;13.738;2024-02-26T13:18:15;12.60;99.90
25250;DHT22;13201;51.148;13.738;2024-02-26T13:20:41;12.70;99.90
25250;DHT22;13201;51.148;13.738;2024-02-26T13:23:09;12.60;99.90
25250;DHT22;13201;51.148;13.738;2024-02-26T13:25:36;12.50;99.90
25250;DHT22;13201;51.148;13.738;2024-02-26T13:28:17;12.50;99.90
25250;DHT22;13201;51.148;13.738;2024-02-26T13:31:10;12.60;99.90
25250;DHT22;13201;51.148;13.738;2024-02-26T13:33:36;12.60;99.90
25250;DHT22;13201;51.148;13.738;2024-02-26T13:36:03;12.60;99.90
25250;DHT22;13201;51.148;13.738;2024-02-26T13:38:29;12.50;99.90
25250;DHT22;13201;51.148;13.738;2024-02-26T13:40:55;12.50;99.90
25250;DHT22;13201;51.148;13.738;2024-02-26T13:43:21;12.50;99.90
25250;DHT22;13201;51.148;13.738;2024-02-26T13:45:47;12.70;99.90
25250;DHT22;13201;51.148;13.738;2024-02-26T13:48:13;12.70;99.90
25250;DHT22;13201;51.148;13.738;2024-02-26T13:50:40;12.70;99.90
25250;DHT22;13201;51.148;13.738;2024-02-26T13:53:06;12.60;99.90
25250;DHT22;13201;51.148;13.738;2024-02-26T13:55:32;12.60;99.90
25250;DHT22;13201;51.148;13.738;2024-02-26T13:57:59;12.60;99.90
25250;DHT22;13201;51.148;13.738;2024-02-26T14:00:31;12.60;99.90
25250;DHT22;13201;51.148;13.738;2024-02-26T14:02:59;12.50;99.90
25250;DHT22;13201;51.148;13.738;2024-02-26T14:05:26;12.60;99.90
25250;DHT22;13201;51.148;13.738;2024-02-26T14:07:52;12.60;99.90
25250;DHT22;13201;51.148;13.738;2024-02-26T14:10:18;12.70;99.90
25250;DHT22;13201;51.148;13.738;2024-02-26T14:12:44;12.90;99.90
25250;DHT22;13201;51.148;13.738;2024-02-26T14:15:10;12.70;99.90
25250;DHT22;13201;51.148;13.738;2024-02-26T14:17:36;12.80;99.90
25250;DHT22;13201;51.148;13.738;2024-02-26T14:20:02;12.80;99.90
25250;DHT22;13201;51.148;13.738;2024-02-26T14:22:29;12.80;99.90
25250;DHT22;13201;51.148;13.738;2024-02-26T14:24:56;12.60;99.90
25250;DHT22;13201;51.148;13.738;2024-02-26T14:27:22;12.80;99.90
25250;DHT22;13201;51.148;13.738;2024-02-26T14:29:48;12.70;99.90
25250;DHT22;13201;51.148;13.738;2024-02-26T14:32:14;12.50;99.90
25250;DHT22;13201;51.148;13.738;2024-02-26T14:34:40;12.60;99.90
25250;DHT22;13201;51.148;13.738;2024-02-26T14:37:06;12.60;99.90
25250;DHT22;13201;51.148;13.738;2024-02-26T14:39:32;12.50;99.90
25250;DHT22;13201;51.148;13.738;2024-02-26T14:41:59;12.60;99.90
25250;DHT22;13201;51.148;13.738;2024-02-26T14:44:25;12.70;99.90
25250;DHT22;13201;51.148;13.738;2024-02-26T14:46:51;12.80;99.90
25250;DHT22;13201;51.148;13.738;2024-02-26T14:49:17;12.90;99.90
25250;DHT22;13201;51.148;13.738;2024-02-26T14:51:44;12.60;99.90
25250;DHT22;13201;51.148;13.738;2024-02-26T14:54:11;12.70;99.90
25250;DHT22;13201;51.148;13.738;2024-02-26T14:56:37;12.80;99.90
25250;DHT22;13201;51.148;13.738;2024-02-26T14:59:03;12.80;99.90
25250;DHT22;13201;51.148;13.738;2024-02-26T15:01:28;12.90;99.90
25250;DHT22;13201;51.148;13.738;2024-02-26T15:03:54;12.70;99.90
25250;DHT22;13201;51.148;13.738;2024-02-26T15:06:20;12.70;99.90
25250;DHT22;13201;51.148;13.738;2024-02-26T15:08:46;12.70;99.90
25250;DHT22;13201;51.148;13.738;2024-02-26T15:11:12;12.70;99.90
25250;DHT22;13201;51.148;13.738;2024-02-26T15:13:38;12.70;99.90
25250;DHT22;13201;51.148;13.738;2024-02-26T15:16:04;12.70;99.90
25250;DHT22;13201;51.148;13.738;2024-02-26T15:18:29;12.70;99.90
25250;DHT22;13201;51.148;13.738;2024-02-26T15:20:55;12.90;99.90
25250;DHT22;13201;51.148;13.738;2024-02-26T15:23:21;12.80;99.90
25250;DHT22;13201;51.148;13.738;2024-02-26T15:25:46;12.80;99.90
25250;DHT22;13201;51.148;13.738;2024-02-26T15:28:12;12.70;99.90
25250;DHT22;13201;51.148;13.738;2024-02-26T15:30:40;12.70;99.90
25250;DHT22;13201;51.148;13.738;2024-02-26T15:33:06;12.70;99.90
25250;DHT22;13201;51.148;13.738;2024-02-26T15:35:32;12.80;99.90
25250;DHT22;13201;51.148;13.738;2024-02-26T15:37:57;12.80;99.90
25250;DHT22;13201;51.148;13.738;2024-02-26T15:40:24;12.80;99.90
25250;DHT22;13201;51.148;13.738;2024-02-26T15:42:50;12.90;99.90
25250;DHT22;13201;51.148;13.738;2024-02-26T15:45:16;12.90;99.90
25250;DHT22;13201;51.148;13.738;2024-02-26T15:47:42;12.90;99.90
25250;DHT22;13201;51.148;13.738;2024-02-26T15:50:08;12.90;99.90